Wednesday, October 17, 2018, 3:29 AM EDT
Back to Local

KCXY, Harrisburg Capital City

Location: New Cumberland, PA, United States Lat: 40.217
Local Time: 3:29 AM EDT ( 7:29 GMT) Lon: -76.85
Time Zone: US/Eastern Elev: 347 ft

Show me the last for .
Show Decoded

2018-10-17 02:56 METAR KCXY 170656Z AUTO 23003KT 10SM CLR 06/04 A3005 RMK AO2 SLP180 T00560044 $
                 =
2018-10-17 01:56 METAR KCXY 170556Z AUTO 24004KT 10SM CLR 07/04 A3007 RMK AO2 SLP183 T00670044
                 10106 20061 58007 $ =
2018-10-16 23:56 METAR KCXY 170356Z AUTO 26004KT 10SM CLR 08/04 A3008 RMK AO2 SLP189 T00830044 $
                 =
2018-10-16 22:56 METAR KCXY 170256Z AUTO 28004KT 10SM CLR 09/04 A3009 RMK AO2 SLP191 T00940044
                 53001 $ =
2018-10-16 21:56 METAR KCXY 170156Z AUTO 00000KT 10SM CLR 09/06 A3008 RMK AO2 SLP188 T00890056 $
                 =
2018-10-16 20:56 METAR KCXY 170056Z 00000KT 10SM CLR 11/04 A3009 RMK AO2 SLP191 T01060039 $ =
2018-10-16 19:56 METAR KCXY 162356Z 00000KT 10SM CLR 11/04 A3008 RMK AO2 SLP190 T01060044 10133
                 20100 56007 $ =
2018-10-16 18:56 METAR KCXY 162256Z 00000KT 10SM CLR 11/04 A3009 RMK AO2 SLP193 T01060039 $ =
2018-10-16 17:56 METAR KCXY 162156Z 19004KT 10SM CLR 12/02 A3009 RMK AO2 SLP192 T01170022 $ =
2018-10-16 16:56 METAR KCXY 162056Z 27008KT 10SM CLR 13/01 A3010 RMK AO2 SLP195 T01330006 55016 $
                 =
2018-10-16 15:56 METAR KCXY 161956Z 25007KT 10SM CLR 13/01 A3010 RMK AO2 SLP195 T01280011 $ =
2018-10-16 14:56 METAR KCXY 161856Z 27009KT 10SM CLR 13/02 A3013 RMK AO2 SLP203 T01280017 $ =
2018-10-16 13:56 METAR KCXY 161756Z 25005KT 10SM FEW048 12/01 A3015 RMK AO2 SLP212 T01220011
                 10122 20089 58023 $ =
2018-10-16 12:56 METAR KCXY 161656Z 26009KT 10SM CLR 12/01 A3019 RMK AO2 SLP224 T01170006 =
2018-10-16 11:56 METAR KCXY 161556Z 32008KT 10SM CLR 11/00 A3021 RMK AO2 SLP232 T01060000 =
2018-10-16 10:56 METAR KCXY 161456Z 32011KT 10SM CLR 10/M01 A3022 RMK AO2 SLP235 T01001006 50001
                 =
2018-10-16 09:56 METAR KCXY 161356Z 32010KT 10SM CLR 09/M01 A3023 RMK AO2 SLP239 T00941006 =
2018-10-16 08:56 METAR KCXY 161256Z 32006G15KT 10SM CLR 09/M01 A3023 RMK AO2 SLP239 T00941006 =
2018-10-16 07:56 METAR KCXY 161156Z 33009KT 10SM CLR 09/00 A3022 RMK AO2 SLP234 70003 T00940000
                 10139 20089 =
2018-10-16 06:56 METAR KCXY 161056Z 32007KT 280V350 10SM CLR 09/01 A3020 RMK AO2 SLP227 T00940011
                 $ =
2018-10-16 05:56 METAR KCXY 160956Z AUTO 31007KT 10SM CLR 11/01 A3018 RMK AO2 SLP220 T01060011 $
                 =
2018-10-16 04:56 METAR KCXY 160856Z AUTO 32009KT 10SM CLR 11/01 A3015 RMK AO2 SLP212 T01110011
                 53015 $ =
2018-10-16 03:56 METAR KCXY 160756Z AUTO 31008G17KT 10SM CLR 12/02 A3013 RMK AO2 SLP205 T01220017
                 $ =

Support USWX by starting your Amazon purchase here.